Hit Tracker is now ESPN Home Run Tracker! Hit Tracker founder Greg Rybarczyk is now collaborating with the ESPN Stats & Information Group to continue tracking all MLB home runs, and helping baseball fans know "How Far It Really Went!™" Please credit any information on this site to ESPN Stats & Information Group. For more information and analysis on home runs, please contact founder Greg Rybarczyk. E-Mail ESPN Home Run Tracker
Main Page | Ballparks | Park Overlays | Glossary | Highlight Homers | Feedback | Bio | 3 Types of HR's | AAA Home Run Derby Last Updated: May 27, 2015, 10:46 pm PST
Welcome to the ESPN Home Run Tracker! Check out the ESPN MLB Scoreboard throughout the 2014 season! Contact us at grybar@hittrackeronline.com.
Season:
Ballpark detail for Chase Field
Ballpark # of Home Runs HR per game Avg.
True
Distance
Avg.
Speed
Off
Bat
Avg.
Std.
Dist.
Chase Field 47 1.96 404.5 104.9 400.9

Scatter Plot of Home Runs Chase Field
 Overlay Ballpark:
Without range rings   With range rings

2015 Season Home Runs for Chase Field
Click headers to sort
Date Video Path Hitter Hitter
Team
 ^
Pitcher Pitcher
Team
INN Ballpark Type/
Luck
True
Dist.
Speed
Off
Bat
Elev.
Angle
Horiz.
Angle
Apex Impact Due To: Std.
Dist.
#
Parks
Wind Temp. Alt.
05/08/15 Video View Owings, Chris ARI Shields, James SD 2 Chase Field PL 406 103.2 25.4 99.8 80 -1 0 1 406 30
05/08/15 Video View Pollock, A.J. ARI Shields, James SD 5 Chase Field JE 410 109.0 21.0 100.0 61 0 0 1 409 23
05/08/15 Video View Goldschmidt, Paul ARI Shields, James SD 6 Chase Field ND 443 110.8 24.6 102.1 84 0 1 2 441 30
05/08/15 Video View Peralta, David ARI Shields, James SD 6 Chase Field PL 400 102.5 30.3 70.0 97 0 1 3 396 30
05/10/15 Video View Hill, Aaron ARI Cashner, Andrew SD 2 Chase Field JE 375 99.1 28.5 111.9 79 0 1 2 372 20
05/10/15 Video View Pollock, A.J. ARI Cashner, Andrew SD 3 Chase Field JE 376 100.7 26.1 110.2 70 0 1 2 374 18
05/11/15 Video View Pacheco, Jordan ARI Scherzer, Max WSH 6 Chase Field PL 362 97.6 31.7 121.3 85 0 2 2 357 29
05/12/15 Video View Inciarte, Ender ARI Strasburg, Stephen WSH 3 Chase Field PL 385 98.6 35.2 72.8 118 7 3 4 371 22
05/12/15 Video View Trumbo, Mark ARI Strasburg, Stephen WSH 4 Chase Field ND 441 110.6 29.7 113.4 105 5 3 4 431 30
05/12/15 Video View Trumbo, Mark ARI Solis, Sammy WSH 6 Chase Field PL 421 116.2 19.9 105.3 56 0 1 1 420 30
04/28/15 Video View Peralta, David ARI Kendrick, Kyle COL 4 Chase Field ND 411 107.6 26.6 66.0 79 0 2 2 408 30
04/28/15 Video View Trumbo, Mark ARI Kendrick, Kyle COL 5 Chase Field PL 451 108.6 27.5 97.6 105 0 3 3 446 30
04/29/15 Video View Pacheco, Jordan ARI Lyles, Jordan COL 5 Chase Field JE 391 98.5 31.3 102.9 101 0 3 3 385 19
05/07/15 Video View Trumbo, Mark ARI Despaigne, Odrisamer SD 1 Chase Field JE 404 108.1 26.4 119.1 75 0 0 0 404 0
05/07/15 Video View Goldschmidt, Paul ARI Despaigne, Odrisamer SD 3 Chase Field PL 363 99.0 29.6 121.8 77 -1 1 2 361 29
04/07/15 Video View Peralta, David ARI Vogelsong, Ryan SF 3 Chase Field ND 437 109.4 27.7 71.8 96 2 1 3 432 30
04/07/15 Video View Lamb, Jake ARI Vogelsong, Ryan SF 5 Chase Field PL 420 108.9 24.1 74.4 74 0 0 1 418 30
04/10/15 Video View Goldschmidt, Paul ARI Anderson, Brett LAD 3 Chase Field JE 400 100.8 26.9 79.6 83 1 1 2 397 22
04/11/15 Video View Goldschmidt, Paul ARI Kershaw, Clayton LAD 7 Chase Field PL 411 107.7 22.8 102.6 67 0 1 1 409 30
04/22/15 Video View Owings, Chris ARI Gallardo, Yovani TEX 4 Chase Field PL 406 102.4 26.6 101.5 84 2 1 1 403 28
05/22/15 Video View Ahmed, Nick ARI Lester, Jon CHC 5 Chase Field PL 388 102.9 30.9 118.8 93 -2 0 3 387 30
05/22/15 Video View Goldschmidt, Paul ARI Rondon, Hector CHC 10 Chase Field PL 407 105.7 23.9 102.6 71 0 0 1 406 30
05/23/15 Video View Gosewisch, Tuffy ARI Arrieta, Jake CHC 6 Chase Field JE 366 97.8 33.9 118.1 100 1 1 3 361 29
05/24/15 Video View Goldschmidt, Paul ARI Hammel, Jason CHC 3 Chase Field JE 433 107.9 22.9 85.6 76 0 0 1 432 26
05/22/15 Video View Fowler, Dexter CHC Collmenter, Josh ARI 3 Chase Field JE 376 106.5 22.5 66.4 56 0 1 1 374 19
05/23/15 Video View Rizzo, Anthony CHC Burgos, Enrique ARI 9 Chase Field JE/L 396 100.1 35.2 79.7 129 6 2 5 384 15
05/24/15 Video View Montero, Miguel CHC Hellickson, Jeremy ARI 2 Chase Field JE 376 101.1 27.0 114.1 72 0 1 2 374 28
05/24/15 Video View Coghlan, Chris CHC Hellickson, Jeremy ARI 5 Chase Field PL 394 104.9 26.0 67.3 73 0 -1 0 394 30
04/27/15 Video View Morneau, Justin COL Anderson, Chase ARI 1 Chase Field JE/L 382 97.1 30.2 75.2 90 3 1 2 375 10
04/10/15 Video View Grandal, Yasmani LAD Anderson, Chase ARI 4 Chase Field PL 440 105.6 31.3 83.9 123 5 2 4 429 28
04/12/15 Video View Puig, Yasiel LAD Collmenter, Josh ARI 5 Chase Field JE 389 105.1 23.2 106.3 63 0 0 1 388 23
04/12/15 Video View Pederson, Joc LAD Schugel, A.J. ARI 6 Chase Field PL 444 109.2 24.6 99.3 85 3 1 2 439 30
04/12/15 Video View Guerrero, Alex LAD Perez, Oliver ARI 9 Chase Field PL 416 103.1 29.4 104.2 99 5 2 3 407 30
05/08/15 Video View Venable, Will SD Hellickson, Jeremy ARI 2 Chase Field ND 418 110.6 23.5 71.6 70 0 0 2 417 30
05/08/15 Video View Myers, Wil SD Hellickson, Jeremy ARI 5 Chase Field ND 400 107.4 27.3 120.6 78 -1 -1 2 399 30
05/09/15 Video View Upton, Justin SD Delgado, Randall ARI 12 Chase Field JE 401 109.4 21.2 104.0 58 0 0 0 401 27
04/07/15 Video View Posey, Buster SF De La Rosa, Rubby ARI 1 Chase Field PL 404 100.9 29.1 102.5 94 3 1 3 398 28
04/07/15 Video View Crawford, Brandon SF De La Rosa, Rubby ARI 6 Chase Field PL 417 102.5 28.3 99.3 96 3 1 2 411 28
04/08/15 Video View McGehee, Casey SF Marshall, Evan ARI 9 Chase Field JE 375 106.2 22.5 112.8 56 0 0 0 374 18
04/21/15 Video View Fielder, Prince TEX Hudson, Daniel ARI 8 Chase Field PL 394 100.8 28.8 74.1 89 0 0 0 394 0
04/22/15 Video View Beltre, Adrian TEX Chafin, Andrew ARI 9 Chase Field JE 380 106.9 23.5 117.4 59 0 1 1 379 29
05/11/15 Video View Span, Denard WSH Collmenter, Josh ARI 1 Chase Field ND 419 109.1 25.2 69.5 76 0 2 2 416 30
05/11/15 Video View Zimmerman, Ryan WSH Collmenter, Josh ARI 1 Chase Field PL 428 104.4 30.5 99.4 113 0 4 3 421 30
05/12/15 Video View Harper, Bryce WSH de la Rosa, Rubby ARI 6 Chase Field JE 396 101.2 26.6 76.1 78 3 1 1 391 26
05/13/15 Video View Werth, Jayson WSH Hellickson, Jeremy ARI 3 Chase Field PL 440 106.7 28.2 100.7 102 4 3 3 432 30
05/13/15 Video View Moore, Tyler WSH Delgado, Randall ARI 6 Chase Field PL 376 105.9 25.5 127.3 63 0 1 1 374 30
05/13/15 Video View Taylor, Michael WSH Reed, Addison ARI 9 Chase Field JE 444 111.0 21.3 92.8 72 0 0 1 444 28


About HitTracker | Contact Us
© 2006-2015 HitTrackerOnline